Time;durP1;ratioP1;P1;durP2;ratioP2;P2;SDS_P1;SDS_P2;PMS_P1;PMS_P2;Temp;Humidity;BMP_temperature;BMP_pressure;BME280_temperature;BME280_humidity;BME280_pressure;Samples;Min_cycle;Max_cycle;Signal;HPM_P1;HPM_P2
2024/01/25 00:00:22;;;;;;;15.15;3.67;;;;;;;;;;5071555;28;20024;-84
2024/01/25 00:02:48;;;;;;;12.43;2.63;;;;;;;;;;5072531;28;20035;-84
2024/01/25 00:05:14;;;;;;;12.15;3.22;;;;;;;;;;5072183;28;20028;-84
2024/01/25 00:07:49;;;;;;;13.68;2.80;;;13.30;99.90;;;;;;5071777;28;20154;-83
2024/01/25 00:10:18;;;;;;;15.13;3.33;;;13.30;99.90;;;;;;5084342;28;20024;-83
2024/01/25 00:12:44;;;;;;;13.38;3.35;;;;;;;;;;5092422;28;20395;-83
2024/01/25 00:15:10;;;;;;;13.43;3.58;;;13.50;99.90;;;;;;5091744;28;20035;-83
2024/01/25 00:17:37;;;;;;;11.15;3.38;;;;;;;;;;5090752;28;20031;-83
2024/01/25 00:20:04;;;;;;;14.82;3.17;;;13.40;99.90;;;;;;5091653;28;20116;-83
2024/01/25 00:22:30;;;;;;;18.45;3.80;;;;;;;;;;5091691;28;20031;-83
2024/01/25 00:24:56;;;;;;;12.48;3.13;;;;;;;;;;5079490;28;20029;-83
2024/01/25 00:27:22;;;;;;;15.50;2.95;;;;;;;;;;5071260;28;20051;-83
2024/01/25 00:29:48;;;;;;;17.55;3.30;;;;;;;;;;5070558;28;20113;-83
2024/01/25 00:32:14;;;;;;;17.50;3.45;;;;;;;;;;5071142;28;20024;-82
2024/01/25 00:34:40;;;;;;;13.50;2.67;;;;;;;;;;5071192;28;20024;-83
2024/01/25 00:37:06;;;;;;;11.43;2.90;;;;;;;;;;5071161;28;20560;-83
2024/01/25 00:39:32;;;;;;;11.45;2.97;;;;;;;;;;5069782;28;20021;-81
2024/01/25 00:42:05;;;;;;;12.25;3.08;;;13.20;99.90;;;;;;5069807;28;20579;-81
2024/01/25 00:44:31;;;;;;;18.25;3.53;;;;;;;;;;5070548;28;20070;-83
2024/01/25 00:46:58;;;;;;;18.13;2.92;;;;;;;;;;5070495;28;20028;-83
2024/01/25 00:49:24;;;;;;;15.90;2.67;;;;;;;;;;5071108;28;20017;-83
2024/01/25 00:51:53;;;;;;;16.35;3.17;;;12.90;99.90;;;;;;5071694;28;20032;-83
2024/01/25 00:54:19;;;;;;;9.90;3.03;;;;;;;;;;5071477;28;20052;-83
2024/01/25 00:56:46;;;;;;;13.23;3.15;;;;;;;;;;5070792;28;20473;-83
2024/01/25 00:59:12;;;;;;;9.05;2.70;;;;;;;;;;5084911;28;20340;-83
2024/01/25 01:01:38;;;;;;;10.90;3.28;;;;;;;;;;5070558;28;20508;-83
2024/01/25 01:04:04;;;;;;;14.45;3.17;;;;;;;;;;5070441;28;20025;-83
2024/01/25 01:06:30;;;;;;;17.23;3.00;;;;;;;;;;5069308;28;20067;-83
2024/01/25 01:08:56;;;;;;;13.65;3.20;;;;;;;;;;5070440;28;20024;-83
2024/01/25 01:11:22;;;;;;;11.60;3.28;;;;;;;;;;5071308;28;20020;-82
2024/01/25 01:13:48;;;;;;;11.10;2.92;;;;;;;;;;5087113;28;20032;-82
2024/01/25 01:16:14;;;;;;;11.05;2.72;;;;;;;;;;5050479;28;20029;-82
2024/01/25 01:18:40;;;;;;;9.32;2.97;;;;;;;;;;5050341;28;20021;-83
2024/01/25 01:21:06;;;;;;;14.00;2.95;;;;;;;;;;5050218;28;20114;-83
2024/01/25 01:23:32;;;;;;;13.05;3.15;;;;;;;;;;5050097;28;20427;-82
2024/01/25 01:25:58;;;;;;;10.32;2.50;;;;;;;;;;5050179;28;20056;-82
2024/01/25 01:28:24;;;;;;;17.00;3.08;;;;;;;;;;5062418;28;20039;-82
2024/01/25 01:30:50;;;;;;;16.08;3.40;;;;;;;;;;5070891;28;20075;-82
2024/01/25 01:33:16;;;;;;;16.75;2.63;;;;;;;;;;5069962;28;20033;-83
2024/01/25 01:35:42;;;;;;;9.27;2.78;;;;;;;;;;5069983;28;20498;-83
2024/01/25 01:38:08;;;;;;;15.57;2.92;;;;;;;;;;5069836;28;20023;-82
2024/01/25 01:40:34;;;;;;;15.88;2.75;;;;;;;;;;5069853;28;20480;-82
2024/01/25 01:43:01;;;;;;;11.95;3.83;;;;;;;;;;5069907;28;20028;-83
2024/01/25 01:45:27;;;;;;;14.52;3.13;;;;;;;;;;5069634;28;20081;-82
2024/01/25 01:47:53;;;;;;;11.95;2.40;;;;;;;;;;5070439;28;20055;-82
2024/01/25 01:50:19;;;;;;;16.70;3.38;;;;;;;;;;5070020;28;20056;-82
2024/01/25 01:52:46;;;;;;;16.35;2.85;;;12.90;99.90;;;;;;5069867;28;20082;-83
2024/01/25 01:55:12;;;;;;;13.07;2.90;;;;;;;;;;5069551;28;20056;-82
2024/01/25 01:57:38;;;;;;;13.93;3.00;;;12.80;99.90;;;;;;5069639;28;20024;-82
2024/01/25 02:00:08;;;;;;;13.35;2.67;;;12.80;99.90;;;;;;5069460;28;20032;-82
2024/01/25 02:02:34;;;;;;;15.43;3.20;;;;;;;;;;5069240;28;20158;-82
2024/01/25 02:05:00;;;;;;;15.13;3.10;;;;;;;;;;5069398;28;20062;-83
2024/01/25 02:07:26;;;;;;;13.63;3.03;;;;;;;;;;5069267;28;20052;-83
2024/01/25 02:09:52;;;;;;;9.55;2.83;;;;;;;;;;5069783;28;20082;-82
2024/01/25 02:12:18;;;;;;;14.77;3.22;;;;;;;;;;5067986;28;20016;-82
2024/01/25 02:14:45;;;;;;;13.80;3.10;;;;;;;;;;5069340;28;20055;-83
2024/01/25 02:17:11;;;;;;;11.10;2.67;;;;;;;;;;5072133;28;20020;-82
2024/01/25 02:19:37;;;;;;;13.35;3.35;;;;;;;;;;5089142;28;20031;-82
2024/01/25 02:22:05;;;;;;;12.95;2.47;;;12.80;99.90;;;;;;5089274;28;20044;-82
2024/01/25 02:24:30;;;;;;;;;;;13.10;99.90;;;;;;5089767;28;20494;-82
2024/01/25 02:26:56;;;;;;;12.98;3.03;;;;;;;;;;5089476;28;19990;-82
2024/01/25 02:29:23;;;;;;;12.88;2.70;;;;;;;;;;5076830;28;20029;-82
2024/01/25 02:31:49;;;;;;;11.45;2.63;;;;;;;;;;5069194;28;20095;-81
2024/01/25 02:34:15;;;;;;;13.02;3.35;;;;;;;;;;5067679;28;20565;-82
2024/01/25 02:36:41;;;;;;;14.73;2.78;;;;;;;;;;5089290;28;20031;-83
2024/01/25 02:39:08;;;;;;;16.13;3.05;;;;;;;;;;5089323;28;20028;-83
2024/01/25 02:41:34;;;;;;;13.95;3.75;;;;;;;;;;5088618;28;20093;-82
2024/01/25 02:44:00;;;;;;;12.75;3.33;;;12.60;99.90;;;;;;5079453;28;20020;-82
2024/01/25 02:46:27;;;;;;;15.45;2.70;;;;;;;;;;5069728;28;20036;-82
2024/01/25 02:48:53;;;;;;;10.13;2.97;;;;;;;;;;5069269;28;20032;-83
2024/01/25 02:51:19;;;;;;;14.60;3.08;;;;;;;;;;5076477;28;20025;-83
2024/01/25 02:53:45;;;;;;;10.48;2.63;;;;;;;;;;5077160;28;20017;-85
2024/01/25 02:56:11;;;;;;;12.65;3.33;;;;;;;;;;5081807;28;20029;-84
2024/01/25 02:58:37;;;;;;;15.07;2.92;;;;;;;;;;5076679;28;20384;-84
2024/01/25 03:01:03;;;;;;;14.82;3.17;;;;;;;;;;5068795;28;20036;-85
2024/01/25 03:03:29;;;;;;;13.57;3.35;;;;;;;;;;5068878;28;20188;-83
2024/01/25 03:05:55;;;;;;;12.30;3.20;;;;;;;;;;5069775;28;20082;-84
2024/01/25 03:08:21;;;;;;;12.93;3.15;;;;;;;;;;5068845;28;20025;-84
2024/01/25 03:10:49;;;;;;;11.77;3.72;;;;;;;;;;5068686;28;20025;-82
2024/01/25 03:13:16;;;;;;;16.05;3.67;;;;;;;;;;5068809;28;20073;-82
2024/01/25 03:15:42;;;;;;;9.00;2.25;;;;;;;;;;5068167;28;20025;-83
2024/01/25 03:18:08;;;;;;;8.02;2.63;;;;;;;;;;5068265;28;20400;-82
2024/01/25 03:20:34;;;;;;;16.27;3.00;;;;;;;;;;5068563;28;20032;-82
2024/01/25 03:23:00;;;;;;;10.88;2.70;;;;;;;;;;5068414;28;20128;-82
2024/01/25 03:25:26;;;;;;;17.73;3.85;;;;;;;;;;5069322;28;20025;-82
2024/01/25 03:27:52;;;;;;;10.10;2.53;;;;;;;;;;5068571;28;20032;-82
2024/01/25 03:30:18;;;;;;;11.48;2.95;;;;;;;;;;5068034;28;20427;-82
2024/01/25 03:32:44;;;;;;;7.22;2.53;;;;;;;;;;5068218;28;20071;-82
2024/01/25 03:35:10;;;;;;;13.55;2.95;;;;;;;;;;5067127;28;20023;-83
2024/01/25 03:37:36;;;;;;;12.82;3.13;;;;;;;;;;5067105;28;20055;-82
2024/01/25 03:40:03;;;;;;;13.65;2.63;;;;;;;;;;5068470;28;20045;-82
2024/01/25 03:42:29;;;;;;;8.63;2.80;;;;;;;;;;5069143;28;20098;-82
2024/01/25 03:44:55;;;;;;;14.13;3.13;;;;;;;;;;5068399;28;20017;-82
2024/01/25 03:47:21;;;;;;;10.23;2.60;;;;;;;;;;5068372;28;20397;-82
2024/01/25 03:49:47;;;;;;;10.60;2.33;;;;;;;;;;5068279;28;20021;-83
2024/01/25 03:52:13;;;;;;;10.48;2.95;;;;;;;;;;5068779;28;20021;-82
2024/01/25 03:54:39;;;;;;;16.40;3.42;;;;;;;;;;5072019;28;20037;-83
2024/01/25 03:57:05;;;;;;;9.35;2.33;;;;;;;;;;5071820;28;20504;-83
2024/01/25 03:59:31;;;;;;;8.07;2.00;;;;;;;;;;5072297;28;20098;-82
2024/01/25 04:01:57;;;;;;;11.80;2.42;;;;;;;;;;5072508;28;20404;-82
2024/01/25 04:04:23;;;;;;;9.65;2.08;;;;;;;;;;5071753;28;20103;-83
2024/01/25 04:06:49;;;;;;;8.45;2.90;;;;;;;;;;5071740;28;20094;-83
2024/01/25 04:09:15;;;;;;;11.80;2.20;;;;;;;;;;5071696;28;20017;-82
2024/01/25 04:11:41;;;;;;;9.13;2.20;;;;;;;;;;5071673;28;20473;-82
2024/01/25 04:14:07;;;;;;;4.97;2.00;;;;;;;;;;5071628;28;20021;-82
2024/01/25 04:16:34;;;;;;;10.93;2.38;;;;;;;;;;5071418;28;20017;-82
2024/01/25 04:19:00;;;;;;;11.82;1.88;;;;;;;;;;5073260;28;20046;-84
2024/01/25 04:21:27;;;;;;;6.45;1.80;;;11.70;99.90;;;;;;5070663;28;20101;-84
2024/01/25 04:23:53;;;;;;;8.52;2.70;;;;;;;;;;5071436;28;20374;-85
2024/01/25 04:26:19;;;;;;;12.07;2.13;;;;;;;;;;5071483;28;20464;-84
2024/01/25 04:28:45;;;;;;;12.85;2.70;;;;;;;;;;5070939;28;20032;-83
2024/01/25 04:31:11;;;;;;;7.68;2.17;;;;;;;;;;5071384;28;20025;-83
2024/01/25 04:33:39;;;;;;;12.77;2.75;;;11.70;99.90;;;;;;5071160;28;20465;-84
2024/01/25 04:36:05;;;;;;;7.88;2.47;;;;;;;;;;5070839;28;20032;-83
2024/01/25 04:38:31;;;;;;;10.20;2.58;;;;;;;;;;5071831;28;20476;-83
2024/01/25 04:40:57;;;;;;;7.60;1.98;;;;;;;;;;5071084;28;20082;-84
2024/01/25 04:43:23;;;;;;;6.30;2.08;;;;;;;;;;5071086;28;20431;-82
2024/01/25 04:45:49;;;;;;;7.55;1.65;;;;;;;;;;5070706;28;20466;-82
2024/01/25 04:48:15;;;;;;;4.07;1.92;;;;;;;;;;5071670;28;20104;-82
2024/01/25 04:50:41;;;;;;;5.97;1.83;;;;;;;;;;5080594;28;20028;-82
2024/01/25 04:53:07;;;;;;;8.65;2.13;;;;;;;;;;5070677;28;20369;-84
2024/01/25 04:55:33;;;;;;;6.78;1.70;;;;;;;;;;5071691;28;20036;-85
2024/01/25 04:57:59;;;;;;;5.20;2.10;;;;;;;;;;5071522;28;20052;-84
2024/01/25 05:00:26;;;;;;;6.53;2.53;;;;;;;;;;5070317;28;20064;-84
2024/01/25 05:02:52;;;;;;;6.03;1.90;;;12.30;99.90;;;;;;5068049;28;20031;-88
2024/01/25 05:05:17;;;;;;;3.80;1.70;;;11.60;99.90;;;;;;5068927;28;20024;-89
2024/01/25 05:07:43;;;;;;;1.52;1.33;;;11.60;99.90;;;;;;5087805;28;20583;-88
2024/01/25 05:10:09;;;;;;;5.57;1.83;;;11.60;99.90;;;;;;5089660;28;20024;-88
2024/01/25 05:12:34;;;;;;;6.45;1.85;;;11.50;99.90;;;;;;5085312;28;20492;-88
2024/01/25 05:15:00;;;;;;;8.68;1.95;;;11.50;99.90;;;;;;5071569;28;20519;-90
2024/01/25 05:17:26;;;;;;;4.00;1.60;;;11.50;99.90;;;;;;5070212;28;20102;-88
2024/01/25 05:19:51;;;;;;;8.38;2.13;;;11.50;99.90;;;;;;5070252;28;20038;-91
2024/01/25 05:22:17;;;;;;;5.72;1.88;;;11.50;99.90;;;;;;5070226;28;20036;-89
2024/01/25 05:24:43;;;;;;;6.45;2.10;;;11.50;99.90;;;;;;5070348;28;20017;-90
2024/01/25 05:27:09;;;;;;;11.68;2.58;;;;;;;;;;5070231;28;20037;-89
2024/01/25 05:29:34;;;;;;;8.45;2.28;;;11.80;99.90;;;;;;5070666;28;20036;-88
2024/01/25 05:32:01;;;;;;;9.90;2.55;;;;;;;;;;5070212;28;20020;-87
2024/01/25 05:34:27;;;;;;;6.05;2.42;;;;;;;;;;5067976;28;20131;-88
2024/01/25 05:36:53;;;;;;;5.93;2.15;;;;;;;;;;5062589;28;20029;-88
2024/01/25 05:39:20;;;;;;;6.82;2.42;;;11.90;99.90;;;;;;5068509;28;20021;-89
2024/01/25 05:41:46;;;;;;;7.30;2.17;;;11.80;99.90;;;;;;5065736;28;20035;-88
2024/01/25 05:44:12;;;;;;;7.97;2.33;;;11.90;99.90;;;;;;5067211;28;20040;-87
2024/01/25 05:46:38;;;;;;;7.78;2.88;;;12.40;99.90;;;;;;5072172;28;20024;-90
2024/01/25 05:49:03;;;;;;;7.45;2.83;;;12.10;99.90;;;;;;5070281;28;20531;-88
2024/01/25 05:51:29;;;;;;;9.30;2.65;;;12.20;99.90;;;;;;5078691;28;20035;-87
2024/01/25 05:53:55;;;;;;;7.28;2.35;;;12.40;99.90;;;;;;5095531;28;20249;-88
2024/01/25 05:56:20;;;;;;;5.30;2.25;;;11.80;99.90;;;;;;5092576;28;20032;-87
2024/01/25 05:58:46;;;;;;;6.10;2.53;;;11.90;99.90;;;;;;5094871;28;20028;-89
2024/01/25 06:01:12;;;;;;;8.60;2.90;;;11.90;99.90;;;;;;5070518;28;20041;-87
2024/01/25 06:03:37;;;;;;;5.50;2.38;;;12.50;99.90;;;;;;5071275;28;20496;-88
2024/01/25 06:06:03;;;;;;;5.30;1.92;;;11.90;99.90;;;;;;5070589;28;20028;-88
2024/01/25 06:08:28;;;;;;;5.82;2.17;;;12.00;99.90;;;;;;5068363;28;20393;-88
2024/01/25 06:10:54;;;;;;;10.13;2.30;;;11.90;99.90;;;;;;5068284;28;20071;-87
2024/01/25 06:13:19;;;;;;;9.20;2.60;;;12.00;99.90;;;;;;5069555;28;20480;-88
2024/01/25 06:15:45;;;;;;;6.82;2.10;;;12.60;99.90;;;;;;5072717;28;20028;-88
2024/01/25 06:18:11;;;;;;;6.30;2.10;;;12.40;99.90;;;;;;5068240;28;20029;-89
2024/01/25 06:20:38;;;;;;;6.88;1.92;;;12.00;99.90;;;;;;5070227;28;20484;-88
2024/01/25 06:23:04;;;;;;;11.70;2.28;;;11.60;99.90;;;;;;5070155;28;20036;-89
2024/01/25 06:25:30;;;;;;;5.65;2.53;;;12.10;99.90;;;;;;5089589;28;20046;-88
2024/01/25 06:27:57;;;;;;;5.80;1.98;;;12.20;99.90;;;;;;5089572;28;20020;-88
2024/01/25 06:30:23;;;;;;;7.03;2.20;;;12.00;99.90;;;;;;5076689;28;20423;-88
2024/01/25 06:32:48;;;;;;;9.90;2.40;;;12.10;99.90;;;;;;5069294;28;20480;-89
2024/01/25 06:35:14;;;;;;;8.45;2.72;;;12.40;99.90;;;;;;5068170;28;20016;-88
2024/01/25 06:37:40;;;;;;;8.15;2.45;;;12.00;99.90;;;;;;5069371;28;20366;-88
2024/01/25 06:40:07;;;;;;;8.18;2.35;;;12.30;99.90;;;;;;5070152;28;20078;-87
2024/01/25 06:42:33;;;;;;;9.07;2.17;;;;;;;;;;5069128;28;20044;-88
2024/01/25 06:44:58;;;;;;;5.32;1.92;;;12.00;99.90;;;;;;5069425;28;20063;-88
2024/01/25 06:47:24;;;;;;;6.35;2.35;;;12.60;99.90;;;;;;5069146;28;20060;-88
2024/01/25 06:49:51;;;;;;;4.25;2.13;;;12.80;99.90;;;;;;5068696;28;20074;-88
2024/01/25 06:52:17;;;;;;;7.75;2.38;;;12.00;99.90;;;;;;5069451;28;20484;-88
2024/01/25 06:54:43;;;;;;;8.65;2.17;;;12.00;99.90;;;;;;5069000;28;20107;-88
2024/01/25 06:57:09;;;;;;;5.45;2.03;;;12.40;99.90;;;;;;5069930;28;20120;-88
2024/01/25 06:59:35;;;;;;;4.88;2.10;;;12.40;99.90;;;;;;5068219;28;20020;-88
2024/01/25 07:02:02;;;;;;;6.57;2.20;;;12.20;99.90;;;;;;5068960;28;20044;-88
2024/01/25 07:04:28;;;;;;;6.33;2.00;;;12.10;99.90;;;;;;5069010;28;20020;-88
2024/01/25 07:06:55;;;;;;;8.23;2.38;;;12.20;99.90;;;;;;5069243;28;20259;-88
2024/01/25 07:09:20;;;;;;;7.95;2.67;;;12.50;99.90;;;;;;5069171;28;20036;-88
2024/01/25 07:11:46;;;;;;;4.65;2.67;;;11.80;99.90;;;;;;5069026;28;20020;-87
2024/01/25 07:14:11;;;;;;;11.85;2.55;;;11.80;99.90;;;;;;5067850;28;20031;-88
2024/01/25 07:16:37;;;;;;;4.75;2.30;;;11.90;99.90;;;;;;5069804;28;20467;-88
2024/01/25 07:19:03;;;;;;;6.68;2.25;;;12.20;99.90;;;;;;5068951;28;20032;-88
2024/01/25 07:21:32;;;;;;;5.68;2.33;;;;;;;;;;5067593;28;20039;-88
2024/01/25 07:24:02;;;;;;;4.43;2.45;;;12.00;99.90;;;;;;5068547;28;20016;-88
2024/01/25 07:26:28;;;;;;;4.88;2.15;;;12.00;99.90;;;;;;5069939;28;20037;-88
2024/01/25 07:28:57;;;;;;;10.15;2.20;;;12.80;99.90;;;;;;5071021;28;20043;-88
2024/01/25 07:31:27;;;;;;;6.70;2.20;;;12.10;99.90;;;;;;5072524;28;20021;-87
2024/01/25 07:33:53;;;;;;;8.30;2.60;;;12.10;99.90;;;;;;5072624;28;20099;-88
2024/01/25 07:36:20;;;;;;;7.38;2.58;;;12.40;99.90;;;;;;5072501;28;20546;-87
2024/01/25 07:38:48;;;;;;;6.07;2.47;;;12.40;99.90;;;;;;5072404;28;20025;-88
2024/01/25 07:41:17;;;;;;;5.20;2.90;;;12.60;99.90;;;;;;5072331;28;20033;-88
2024/01/25 07:43:42;;;;;;;6.07;2.63;;;12.10;99.90;;;;;;5072495;28;20473;-88
2024/01/25 07:46:08;;;;;;;4.95;2.70;;;12.10;99.90;;;;;;5072851;28;20071;-88
2024/01/25 07:48:34;;;;;;;7.65;3.05;;;12.40;99.90;;;;;;5072222;28;20024;-88
2024/01/25 07:50:59;;;;;;;10.20;3.40;;;12.40;99.90;;;;;;5072130;28;20067;-88
2024/01/25 07:53:25;;;;;;;5.55;2.78;;;12.80;99.90;;;;;;5086905;28;20039;-89
2024/01/25 07:55:50;;;;;;;6.53;2.88;;;12.50;99.90;;;;;;5074016;28;20115;-88
2024/01/25 07:58:16;;;;;;;7.22;3.30;;;12.90;99.90;;;;;;5072212;28;20058;-89
2024/01/25 08:00:42;;;;;;;7.45;2.88;;;12.20;99.90;;;;;;5073059;28;20060;-88
2024/01/25 08:03:08;;;;;;;5.60;3.05;;;12.40;99.90;;;;;;5071225;28;20041;-88
2024/01/25 08:05:34;;;;;;;7.03;3.28;;;12.50;99.90;;;;;;5070750;28;20029;-88
2024/01/25 08:08:00;;;;;;;6.18;3.63;;;12.50;99.90;;;;;;5070288;28;20028;-88
2024/01/25 08:10:25;;;;;;;5.97;3.72;;;12.50;99.90;;;;;;5071745;28;20100;-87
2024/01/25 08:12:51;;;;;;;7.72;4.47;;;12.20;99.90;;;;;;5072066;28;20028;-88
2024/01/25 08:15:17;;;;;;;7.00;4.90;;;12.60;99.90;;;;;;5071869;28;20059;-88
2024/01/25 08:17:43;;;;;;;6.05;4.72;;;12.40;99.90;;;;;;5072686;28;20044;-88
2024/01/25 08:20:10;;;;;;;7.07;4.65;;;12.20;99.90;;;;;;5072524;28;20025;-88
2024/01/25 08:22:36;;;;;;;6.82;4.30;;;12.30;99.90;;;;;;5078101;28;20520;-88
2024/01/25 08:25:02;;;;;;;6.25;3.78;;;12.20;99.90;;;;;;5076489;28;20029;-88
2024/01/25 08:27:27;;;;;;;8.00;3.70;;;12.30;99.90;;;;;;5071668;28;20416;-88
2024/01/25 08:29:53;;;;;;;7.35;4.53;;;12.90;99.90;;;;;;5070016;28;20036;-88
2024/01/25 08:32:18;;;;;;;6.93;3.80;;;13.00;99.90;;;;;;5071531;28;20028;-88
2024/01/25 08:34:44;;;;;;;9.43;4.15;;;12.30;99.90;;;;;;5072342;28;20024;-88
2024/01/25 08:37:10;;;;;;;6.70;3.65;;;12.80;99.90;;;;;;5072322;28;20082;-88
2024/01/25 08:39:35;;;;;;;7.30;3.97;;;13.10;99.90;;;;;;5070887;28;20033;-88
2024/01/25 08:42:03;;;;;;;10.52;4.65;;;12.50;99.90;;;;;;5071430;28;20054;-88
2024/01/25 08:44:29;;;;;;;9.63;4.65;;;12.40;99.90;;;;;;5071402;28;20031;-88
2024/01/25 08:46:54;;;;;;;6.78;4.75;;;12.80;99.90;;;;;;5071791;28;20032;-88
2024/01/25 08:49:20;;;;;;;8.35;5.03;;;12.80;99.90;;;;;;5090663;28;20099;-88
2024/01/25 08:51:46;;;;;;;9.38;4.60;;;12.70;99.90;;;;;;5094730;28;20100;-89
2024/01/25 08:54:11;;;;;;;8.05;4.82;;;12.40;99.90;;;;;;5114493;28;20110;-88
2024/01/25 08:56:37;;;;;;;8.55;5.32;;;;;;;;;;5098223;28;20038;-85
2024/01/25 08:59:03;;;;;;;8.60;5.30;;;12.30;99.90;;;;;;5116938;28;20012;-87
2024/01/25 09:01:28;;;;;;;6.38;4.45;;;12.80;99.90;;;;;;5098037;28;20043;-88
2024/01/25 09:03:54;;;;;;;7.50;4.75;;;12.90;99.90;;;;;;5090742;28;20157;-89
2024/01/25 09:06:20;;;;;;;6.70;4.38;;;12.80;99.90;;;;;;5091294;28;20380;-88
2024/01/25 09:08:45;;;;;;;8.75;4.47;;;12.90;99.90;;;;;;5091611;28;20035;-87
2024/01/25 09:11:11;;;;;;;6.88;4.03;;;11.60;99.90;;;;;;5089845;28;20400;-89
2024/01/25 09:13:36;;;;;;;6.40;3.92;;;12.50;99.90;;;;;;5075246;28;20044;-88
2024/01/25 09:16:02;;;;;;;9.02;5.40;;;12.50;99.90;;;;;;5070611;28;20027;-88
2024/01/25 09:18:28;;;;;;;12.85;6.22;;;;;;;;;;5070653;28;20043;-88
2024/01/25 09:20:54;;;;;;;8.52;5.03;;;12.60;99.90;;;;;;5069099;28;20032;-89
2024/01/25 09:23:20;;;;;;;8.00;4.57;;;12.50;99.90;;;;;;5070510;28;20095;-88
2024/01/25 09:25:45;;;;;;;7.80;4.50;;;12.90;99.90;;;;;;5069518;28;20068;-87
2024/01/25 09:28:11;;;;;;;8.05;4.63;;;13.00;99.90;;;;;;5070395;28;20048;-88
2024/01/25 09:30:39;;;;;;;10.52;4.40;;;12.70;99.90;;;;;;5070354;28;20551;-88
2024/01/25 09:33:05;;;;;;;4.90;4.30;;;;;;;;;;5069051;28;20025;-88
2024/01/25 09:35:30;;;;;;;5.57;4.38;;;12.50;99.90;;;;;;5069922;28;20108;-88
2024/01/25 09:37:56;;;;;;;6.75;4.00;;;12.70;99.90;;;;;;5068948;28;20124;-88
2024/01/25 09:40:22;;;;;;;7.20;3.95;;;12.70;99.90;;;;;;5070076;28;20074;-88
2024/01/25 09:42:48;;;;;;;6.47;3.95;;;12.60;99.90;;;;;;5084094;28;20552;-87
2024/01/25 09:45:18;;;;;;;5.40;3.25;;;12.50;99.90;;;;;;5091285;28;20051;-88
2024/01/25 09:47:47;;;;;;;8.57;3.67;;;13.00;99.90;;;;;;5091288;28;20103;-88
2024/01/25 09:50:14;;;;;;;4.95;3.00;;;13.20;99.90;;;;;;5084970;28;20043;-88
2024/01/25 09:52:43;;;;;;;6.18;3.10;;;13.30;99.90;;;;;;5069988;28;20031;-88
2024/01/25 09:55:15;;;;;;;6.05;3.00;;;12.50;99.90;;;;;;5069955;28;20052;-88
2024/01/25 09:57:45;;;;;;;5.95;3.03;;;12.70;99.90;;;;;;5069800;28;20025;-89
2024/01/25 10:00:11;;;;;;;5.30;2.38;;;13.40;99.90;;;;;;5069332;28;20543;-88
2024/01/25 10:02:38;;;;;;;4.95;2.63;;;;;;;;;;5068104;28;20033;-87
2024/01/25 10:05:04;;;;;;;4.82;2.60;;;12.70;99.90;;;;;;5069787;28;20061;-88
2024/01/25 10:07:39;;;;;;;7.28;2.85;;;12.60;99.90;;;;;;5069711;28;20096;-88
2024/01/25 10:10:05;;;;;;;6.00;2.65;;;12.60;99.90;;;;;;5069697;28;20108;-88
2024/01/25 10:12:31;;;;;;;3.90;2.50;;;12.70;99.90;;;;;;5069696;28;20096;-89
2024/01/25 10:14:57;;;;;;;4.80;2.58;;;13.00;99.90;;;;;;5069403;28;20051;-88
2024/01/25 10:17:23;;;;;;;4.63;2.58;;;13.10;99.90;;;;;;5068378;28;20111;-88
2024/01/25 10:19:48;;;;;;;6.32;2.63;;;13.10;99.90;;;;;;5068860;28;20058;-88
2024/01/25 10:22:14;;;;;;;4.78;2.40;;;13.40;99.90;;;;;;5069486;28;20116;-87
2024/01/25 10:24:40;;;;;;;7.13;2.40;;;12.70;99.90;;;;;;5069551;28;20107;-88
2024/01/25 10:27:07;;;;;;;4.03;2.42;;;12.70;99.90;;;;;;5068983;28;20028;-88
2024/01/25 10:29:34;;;;;;;3.30;2.38;;;12.80;99.90;;;;;;5069418;28;20029;-88
2024/01/25 10:32:02;;;;;;;4.18;2.60;;;12.80;99.90;;;;;;5069430;28;20052;-88
2024/01/25 10:34:29;;;;;;;6.47;2.80;;;12.90;99.90;;;;;;5069599;28;20020;-89
2024/01/25 10:36:55;;;;;;;8.60;3.05;;;13.50;99.90;;;;;;5067943;28;20024;-87
2024/01/25 10:39:21;;;;;;;7.72;3.28;;;13.00;99.90;;;;;;5069431;28;20099;-89
2024/01/25 10:41:50;;;;;;;5.22;2.65;;;13.00;99.90;;;;;;5068471;28;20040;-88
2024/01/25 10:44:21;;;;;;;5.97;3.25;;;13.30;99.90;;;;;;5070210;28;20021;-87
2024/01/25 10:46:49;;;;;;;5.05;3.00;;;13.20;99.90;;;;;;5070012;28;20024;-88
2024/01/25 10:49:18;;;;;;;7.90;2.42;;;13.40;99.90;;;;;;5069723;28;20385;-88
2024/01/25 10:51:44;;;;;;;5.43;2.30;;;13.30;99.90;;;;;;5069262;28;20035;-88
2024/01/25 10:54:11;;;;;;;6.75;2.25;;;13.30;99.90;;;;;;5078191;28;20043;-88
2024/01/25 10:56:40;;;;;;;6.15;2.50;;;13.30;99.90;;;;;;5089356;28;20027;-87
2024/01/25 10:59:07;;;;;;;4.07;2.20;;;;;;;;;;5088034;28;20504;-89
2024/01/25 11:01:34;;;;;;;5.05;2.28;;;12.90;99.90;;;;;;5090443;28;20447;-88
2024/01/25 11:04:00;;;;;;;5.63;2.10;;;12.90;99.90;;;;;;5083759;28;20024;-87
2024/01/25 11:06:27;;;;;;;6.13;2.58;;;13.40;99.90;;;;;;5073368;28;20277;-87
2024/01/25 11:09:05;;;;;;;5.38;2.50;;;13.50;99.90;;;;;;5073163;28;20025;-87
2024/01/25 11:11:31;;;;;;;4.15;2.53;;;12.90;99.90;;;;;;5072947;28;20020;-87
2024/01/25 11:13:59;;;;;;;10.45;3.90;;;13.20;99.90;;;;;;5073135;28;20027;-87
2024/01/25 11:16:29;;;;;;;7.25;3.90;;;13.10;99.90;;;;;;5072928;28;20017;-87
2024/01/25 11:18:58;;;;;;;7.65;3.50;;;13.30;99.90;;;;;;5071415;28;20024;-88
2024/01/25 11:21:47;;;;;;;8.90;3.50;;;13.40;99.90;;;;;;5072660;28;20484;-87
2024/01/25 11:24:16;;;;;;;7.38;3.35;;;13.10;99.90;;;;;;5072902;28;20029;-89
2024/01/25 11:26:46;;;;;;;9.23;3.80;;;13.50;99.90;;;;;;5078600;28;20032;-88
2024/01/25 11:29:20;;;;;;;6.10;3.08;;;13.60;99.90;;;;;;5092891;28;20032;-88
2024/01/25 11:31:48;;;;;;;9.15;3.00;;;13.20;99.90;;;;;;5092776;28;20035;-88
2024/01/25 11:34:15;;;;;;;5.65;3.00;;;13.70;99.90;;;;;;5079644;28;20020;-88
2024/01/25 11:36:41;;;;;;;4.43;2.60;;;13.70;99.90;;;;;;5072669;28;20067;-89
2024/01/25 11:39:09;;;;;;;5.32;2.55;;;13.70;99.90;;;;;;5072872;28;20025;-88
2024/01/25 11:41:35;;;;;;;7.70;3.15;;;13.40;99.90;;;;;;5072557;28;20029;-88
2024/01/25 11:44:04;;;;;;;5.95;3.13;;;13.80;99.90;;;;;;5072740;28;20102;-89
2024/01/25 11:46:30;;;;;;;5.38;3.00;;;13.70;99.90;;;;;;5072605;28;20452;-88
2024/01/25 11:48:58;;;;;;;5.55;2.83;;;13.40;99.90;;;;;;5071244;28;20025;-87
2024/01/25 11:51:24;;;;;;;6.40;2.70;;;13.40;99.90;;;;;;5084792;28;20055;-87
2024/01/25 11:53:50;;;;;;;5.70;2.60;;;13.00;99.90;;;;;;5116450;28;20015;-87
2024/01/25 11:56:21;;;;;;;5.60;2.85;;;13.80;99.90;;;;;;5115745;28;20076;-87
2024/01/25 11:58:47;;;;;;;7.03;2.97;;;13.40;99.90;;;;;;5118000;28;20079;-88
2024/01/25 12:01:14;;;;;;;4.82;2.40;;;13.80;99.90;;;;;;5101780;28;20130;-87
2024/01/25 12:03:40;;;;;;;5.93;2.80;;;13.80;99.90;;;;;;5077267;28;20024;-89
2024/01/25 12:06:09;;;;;;;5.70;2.95;;;13.80;99.90;;;;;;5072051;28;20021;-88
2024/01/25 12:08:34;;;;;;;;;;;13.80;99.90;;;;;;5072712;28;20357;-88
2024/01/25 12:11:08;;;;;;;6.05;2.90;;;13.70;99.90;;;;;;5072109;28;19909;-88
2024/01/25 12:13:35;;;;;;;6.80;3.10;;;13.80;99.90;;;;;;5070643;28;20108;-88
2024/01/25 12:16:02;;;;;;;8.98;3.33;;;13.70;99.90;;;;;;5071702;28;20060;-87
2024/01/25 12:18:28;;;;;;;7.72;3.33;;;13.90;99.90;;;;;;5071940;28;20025;-88
2024/01/25 12:20:54;;;;;;;4.03;2.70;;;13.40;99.90;;;;;;5072504;28;20484;-88
2024/01/25 12:23:20;;;;;;;6.22;2.80;;;13.40;99.90;;;;;;5070621;28;20036;-87
2024/01/25 12:25:45;;;;;;;7.88;3.58;;;13.80;99.90;;;;;;5070445;28;20036;-88
2024/01/25 12:28:11;;;;;;;7.88;3.05;;;13.50;99.90;;;;;;5071169;28;20024;-87
2024/01/25 12:30:37;;;;;;;7.13;2.88;;;13.60;99.90;;;;;;5071612;28;20035;-88
2024/01/25 12:33:03;;;;;;;10.68;3.17;;;13.80;99.90;;;;;;5071690;28;20024;-88
2024/01/25 12:35:29;;;;;;;9.88;3.58;;;13.50;99.90;;;;;;5071630;28;20499;-88
2024/01/25 12:37:54;;;;;;;6.72;2.90;;;13.50;99.90;;;;;;5072220;28;20024;-88
2024/01/25 12:40:20;;;;;;;6.57;3.58;;;14.00;99.90;;;;;;5071496;28;20033;-88
2024/01/25 12:42:46;;;;;;;9.23;3.63;;;13.90;99.90;;;;;;5069543;28;20131;-88
2024/01/25 12:45:11;;;;;;;8.85;3.30;;;14.00;99.90;;;;;;5069965;28;20093;-88
2024/01/25 12:47:37;;;;;;;6.70;3.53;;;13.80;99.90;;;;;;5071303;28;20546;-88
2024/01/25 12:50:02;;;;;;;6.68;3.30;;;13.70;99.90;;;;;;5071259;28;20103;-88
2024/01/25 12:52:29;;;;;;;9.77;3.65;;;13.70;99.90;;;;;;5071070;28;20031;-88
2024/01/25 12:54:55;;;;;;;12.15;3.28;;;14.00;99.90;;;;;;5070560;28;20024;-88
2024/01/25 12:57:20;;;;;;;14.35;3.35;;;14.10;99.90;;;;;;5071100;28;20039;-89
2024/01/25 12:59:47;;;;;;;8.75;3.42;;;14.20;99.90;;;;;;5070968;28;20020;-89
2024/01/25 13:02:12;;;;;;;8.20;3.25;;;14.10;99.90;;;;;;5070860;28;20480;-88
2024/01/25 13:04:38;;;;;;;9.23;3.55;;;13.80;99.90;;;;;;5071060;28;20027;-88
2024/01/25 13:07:03;;;;;;;7.57;3.13;;;14.10;99.90;;;;;;5072577;28;20054;-88
2024/01/25 13:09:33;;;;;;;8.30;3.70;;;;;;;;;;5089870;28;20024;-88
2024/01/25 13:12:00;;;;;;;6.90;3.10;;;13.90;99.90;;;;;;5090512;28;20032;-88
2024/01/25 13:14:26;;;;;;;10.48;3.33;;;14.10;99.90;;;;;;5090398;28;20020;-88
2024/01/25 13:16:51;;;;;;;11.65;3.70;;;14.10;99.90;;;;;;5071432;28;20115;-88